Terminal Aerodrome Forecast
Issued by NWS

Home | Current Version | Previous Version | Text Only | Print | Product List | Glossary On
Versions: 1 2 3 4 5 6 7 8 9 10 11 12 13 14 15 16 17 18 19 20 21 22 23 24 25 26 27 28 29
000
FTUS45 KPSR 240500
TAFPHX
TAF
KPHX 240535Z 2406/2506 07010G20KT P6SM VCTS FEW100CB BKN120 OVC250
     FM240700 12008KT P6SM SCT100 BKN150 OVC250
     FM241600 12012KT P6SM FEW100 SCT150 SCT250=

USA.gov is the U.S. government's official web portal to all federal, state and local government web resources and services.